Información del aeropuerto SCVD

Información de pista
Pista 17 Longitud 6870 ft Anchura 148 ft
Elevación 59 ft Umbral 0 ft Rumbo 178
Pista 35 Longitud 6870 ft Anchura 148 ft
Elevación 54 ft Umbral 0 ft Rumbo 358
Frecuencias del aeropuerto
Tipo INFO Nombre AFIS Frecuencia 127.7 MHZ
Radioayudas del aeropuerto
Tipo VOR-DME Nombre Valdivia Frecuencia 114500 KHZ
Tipo NDB Nombre Valdivia Frecuencia 208 KHZ
Información meteorológica del aeropuerto y NOTAM
ADDS - METARS form results

(0457 UTC 05 March 2021)
Data provider http://aviationweather.gov/metar/data/
 
METAR text: SCVD 050400Z AUTO 00000KT 9999 NCD 15/11 Q1011
Conditions at: SCVD (VALDIVIA/PICHOY , CL) observed 0400 UTC 05 March 2021
Temperature: 15.0°C (59°F)
Dewpoint: 11.0°C (52°F) [RH = 77%]
Pressure (altimeter): 29.85 inches Hg (1011.0 mb)
Winds: calm
Visibility: 6 or more miles (10+ km)
Ceiling: at least 12,000 feet AGL
Clouds: sky clear below 12,000 feet AGL
Weather: no significant weather observed at this time